Airfield :
LOGIN :

Register | Disclaimer

   EN    FR    IT 

 










Legend :    VFR   Marginal VFR   IFR   Intensive IFR   Very Intensive IFR
Visi :
Ceiling :
>= 8 km
>= 3000ft
5 to 8 km
1000 to 3000 ft
1500m to 5 km
500 to 1000 ft
800 to 1500m
200 to 500 ft
< 800m
< 200 ft
Symbols :   Thunderstorms  Fog  Heavy snow  Heavy precipitations  Wind > 20 kt
SIGMETs :     Misc.  Thunderstorms  Icing  Turbulence  Mountain Waves  Volcanic Ashes







- Airport Elevation : 257 ft
- IATA code : MAN
- Download approach charts


EGCC - Manchester

CURRENT METAR :
  • 191150Z AUTO 12005KT 080V170 2900 +RA //////TCU 13/11 Q1002 BECMG RA

EXPIRED METARs :
  • 191120Z AUTO 11004KT 050V170 9999 -RA //////TCU 13/11 Q1003 NOSIG
  • 191050Z AUTO VRB02KT 9999 -RA //////TCU 13/11 Q1003 NOSIG
  • 191020Z VRB01KT 9999 7000NW NSC 13/10 Q1004 NOSIG
  • 190950Z 27003KT 9999 7000NW NSC 12/10 Q1004 NOSIG
  • 190920Z VRB02KT 9999 6000W NSC 12/10 Q1004 NOSIG

TAF AMD TAF EGCC
Valid from the 19 at 12:00 until the 20 at 18:00 UTC


191154Z 1912/2018 15008KT 9999 FEW008 SCT030
TEMPO 1912/1915 3000 +RA
PROB30
TEMPO 1912/1915 BKN008
TEMPO 1918/1924 15015G25KT 8000 -RA BKN010
PROB40
TEMPO 1918/1924 4000 RA
TEMPO 2006/2012 6000 RA BKN008
BECMG 2009/2012 26012KT
BECMG 2015/2018 20014KT
ATIS : +44 161 499 2324
No reported NOTAMs for that airfield.



MET'MAP, your aeronautical weather chart ! - Copyright ORBIFLY December 2007 - Disclaimer

ORBIFLY MET'MAP TEAM :

Programming & Development : Alexandra Zaïnal
Concept & Development : Baudouin d'Aumeries
Co-Development & Prog : Marc-Olivier Méhu
Technical & hardware support : Manuel Goepfert

Contact : metmap@orbifly.com




SOURCES & CREDITS :

   NOAA